Grandview, TX (76050)

8:01 PM CDT on July 05, 2015 (GMT -0500)
Grandview, TX | | Change Station
CLOSE
Current Station
Personal Weather Station
Location: Itasca, TX
Elevation: 732 ft
Nearby Weather Stations

Elev 732 ft 32.23 °N, 97.21 °W | Updated 2 minutes ago

Clear
Clear
83.7 °F
Feels Like 87 °F
N
7.4
Wind Variable Wind from North
Gusts 11.2 mph

Today
High -- | Low -- °F
--% Chance of Precip.
Yesterday
High -- | Low -- °F
Precip. -- in
6:27 AM 8:39 PM
Waning Gibbous, 80% visible
Pressure 29.94 in
Visibility 7.0 miles
Clouds Clear
Heat Index 87 °F
Dew Point 72 °F
Humidity 61%
Rainfall -999.00 in
Snow Depth Not available.
UV 1 out of 12
Pollen 4.20 out of 12
Air Quality Not available.
Flu Activity Not available.
METAR KINJ 060035Z AUTO 15012G15KT 7SM CLR 31/20 A2994 RMK AO2 T03080202

More Conditions Fewer Conditions

Pressure 29.94 in
Visibility 7.0 miles
Clouds Clear
Heat Index 87 °F
Dew Point 72 °F
Humidity 61%
Rainfall -999.00 in
Snow Depth Not available.
UV 1 out of 12
Pollen 4.20 out of 12
Air Quality Not available.
Flu Activity Not available.
METAR KINJ 060035Z AUTO 15012G15KT 7SM CLR 31/20 A2994 RMK AO2 T03080202

More Conditions Fewer Conditions

10-Day Weather Forecast

×

Almanac

Astronomy

Jul. 05, 2015 Rise Set
Actual Time
Civil Twilight
Nautical Twilight
Astronomical Twilight
Moon
Length of Visible Light
Length of Day
Tomorrow will be .
, % of the Moon is Illuminated

Today's Extremes

State Highs State Lows

Community

WunderPhotos

Upload Photos

1,835,437 photos uploaded!

WunderBlogs® & News

Nearby

Air Quality

  Air Quality AQ Index Pollutant
Not available.

Snow Depth

Station Depth Elevation

Earthquake Activity

City Distance Mag. Time & Date
Minimum magnitude displayed is 2.5.

Coastal Water Temperatures

Place Temperature

Stations

Nearby Weather Stations

Station Location Temp. Windchill Dew Point Humidity Wind Precip. Elev Updated Type